Aeroporto :
LOGIN :

Iscrizione | Disclaimer

   EN    FR    IT 

 










Sommario :    VFR   VFR Marginale   IFR   IFR Intensivo   IFR Molto Intensivo
Visibilità : 
Base nubi : 
>= 8 km
>= 3000ft
5 / 8 km
1000 / 3000 ft
1500m / 5 km
500 / 1000 ft
800 / 1500m
200 / 500 ft
< 800m
< 200 ft
Simboli :   Temporali  Nebbia  Neve Forte  Precipitazioni Forti  Vento > 20 kt
SIGMETs :   Varie  Temporali  Ghiacco  Turbolenza  Onda orograficha  Ceneri Vulcaniche






- Altitudine del aeroporto : 584 ft


LFPV - Villacoublay Vélizy

ULTIMO METAR :
  • 250800Z AUTO VRB03KT 0250 0200 R27/0225N R09/0225N FZFG VV/// M02/M02 Q1032 BECMG 2500 BR OVC003

METARs OBSOLETI :
  • 250730Z AUTO VRB01KT 0250 0200 R27/0225N R09/0250N FZFG VV/// M02/M02 Q1032 BECMG 2500 BR OVC003
  • 250700Z AUTO VRB01KT 0250 R27/0300N R09/0250N FZFG VV/// M02/M02 Q1032 NOSIG
  • 250630Z AUTO VRB02KT 0300 0250 R27/0300N R09/0325N FZFG VV/// M02/M02 Q1032 NOSIG
  • 250600Z AUTO VRB01KT 0250 R27/0300N R09/0275N FZFG VV/// M02/M02 Q1032 NOSIG
  • 250530Z AUTO VRB02KT 0350 0300 R27/0375N R09/0375N FZFG VV/// M02/M02 Q1032 NOSIG

TAF TAF LFPV
Valido dal 25 a 03 ore il 26 a 03 ore UTC


250200Z 2503/2603 VRB03KT 0300 FZFG VV/// TX03/2516Z TNM03/2505Z
BECMG 2509/2511 2500 BR OVC003
BECMG 2511/2513 7000 NSW BKN008
BECMG 2521/2523 2500 BR OVC004
PROB40 2523/2603 0300 FZFG VV///



MetMap, La meteo Aeronautica in un colpo d'occhio ! - Copyright ORBIFLY Dicembre 2007 - Disclaimer

ORBIFLY MET'MAP TEAM :

Programmazione e sviluppo : Alexandra Zaïnal
Concezione : Baudouin d'Aumeries
Supporto tecnico e logistico : Manuel Goepfert
Aiuto : Marc-Olivier Méhu
Aiuto per la traduzione : Arnaldo La Scala

Contatto : metmap@orbifly.com




FONTI E CREDITI :

   NOAA